Karymskoye, Russia
Current Conditions -  °F | °C
As of 3:00 AM on Monday 26 Jan 2015 (Local Time) from UIAA Reporting Station
Clear Clear  
Wind Chill: -22°   Ceiling: Unl
Heat Index: -6°   Visibility: 6mi
Dew Point: -18°   Wind: 9mph
Humidity: 55%   Direction: 240°WSW
Pressure: 30.21"   Gusts: NA
Location:  51.62°N, 114.35°E
Report Text: UIAA 251800Z 24004MPS 9999 SKC M21/M28 Q1023 NOSIG RMK QFE70829450160
Loading
Personal Weather Stations






























Interactive Weather Map New forecast layout! Learn more

10-Day Weather Forecast

Advertisements
Track Severe Weather on mobile